UAE730 HUEN-OMDB
Flight info
| Callsign | UAE730 |
|---|---|
| Flight time | N/A |
| Altitude | 37000 |
| Route | IMVIP2B IMVIP UM216 HARGA UB404 DEMGO B404 RIGAM B400 DAXAM Y414 DEDSO R401 PEDOG Q308 KIPOK Q568 IMPED |
| Aircraft | B77W/H-SDE1E2E3FGHIJ2J3J4J5M1RWXY/LB1D1 |
Departure
| Time | N/A |
|---|---|
| Airport | Entebbe International Airport (HUEN) |
Arrival
| Time | 2026-05-03 23:22 |
|---|---|
| Airport | Dubai International Airport (OMDB) |
| Time | Latitude | Longitude | Altitude | Speed | Heading |
|---|---|---|---|---|---|
| 2026-05-03 20:15 | 8.66535 | 43.03090 | 37058 ft | 479 kts | 51° |
| 2026-05-03 20:15 | 8.70770 | 43.08287 | 37061 ft | 479 kts | 51° |
| 2026-05-03 20:16 | 8.74976 | 43.13451 | 37067 ft | 479 kts | 51° |
| 2026-05-03 20:16 | 8.79222 | 43.18666 | 37065 ft | 480 kts | 51° |
| 2026-05-03 20:17 | 8.83464 | 43.23878 | 37068 ft | 480 kts | 51° |
| 2026-05-03 20:17 | 8.87664 | 43.29041 | 37069 ft | 480 kts | 51° |
| 2026-05-03 20:18 | 8.91902 | 43.34252 | 37071 ft | 480 kts | 51° |
| 2026-05-03 20:18 | 8.96146 | 43.39472 | 37071 ft | 480 kts | 51° |
| 2026-05-03 20:19 | 9.00378 | 43.44681 | 37065 ft | 479 kts | 51° |
| 2026-05-03 20:19 | 9.04610 | 43.49891 | 37068 ft | 479 kts | 51° |
| 2026-05-03 20:20 | 9.08806 | 43.55059 | 37063 ft | 479 kts | 51° |
| 2026-05-03 20:20 | 9.13036 | 43.60272 | 37061 ft | 479 kts | 51° |
| 2026-05-03 20:21 | 9.17261 | 43.65480 | 37064 ft | 479 kts | 51° |
| 2026-05-03 20:21 | 9.21488 | 43.70695 | 37056 ft | 479 kts | 51° |
| 2026-05-03 20:22 | 9.25717 | 43.75913 | 37052 ft | 479 kts | 51° |
| 2026-05-03 20:22 | 9.29894 | 43.81122 | 37051 ft | 479 kts | 52° |
| 2026-05-03 20:23 | 9.34083 | 43.86375 | 37045 ft | 480 kts | 52° |
| 2026-05-03 20:23 | 9.38275 | 43.91627 | 37042 ft | 480 kts | 52° |
| 2026-05-03 20:24 | 9.42472 | 43.96882 | 37038 ft | 480 kts | 52° |
| 2026-05-03 20:24 | 9.46648 | 44.02113 | 37038 ft | 480 kts | 52° |
| 2026-05-03 20:25 | 9.50845 | 44.07374 | 37032 ft | 480 kts | 52° |
| 2026-05-03 20:25 | 9.54576 | 44.12953 | 37034 ft | 479 kts | 61° |
| 2026-05-03 20:26 | 9.57883 | 44.18822 | 37016 ft | 479 kts | 61° |
| 2026-05-03 20:26 | 9.61200 | 44.24626 | 37017 ft | 480 kts | 60° |
| 2026-05-03 20:27 | 9.64564 | 44.30472 | 37006 ft | 480 kts | 60° |
| 2026-05-03 20:27 | 9.67928 | 44.36308 | 37005 ft | 480 kts | 60° |
| 2026-05-03 20:28 | 9.71291 | 44.42146 | 37003 ft | 480 kts | 60° |
| 2026-05-03 20:28 | 9.74634 | 44.47956 | 36999 ft | 480 kts | 60° |
| 2026-05-03 20:29 | 9.77991 | 44.53794 | 36995 ft | 479 kts | 60° |
| 2026-05-03 20:29 | 9.81341 | 44.59622 | 36981 ft | 478 kts | 60° |
| 2026-05-03 20:30 | 9.84687 | 44.65448 | 36995 ft | 478 kts | 60° |
| 2026-05-03 20:30 | 9.88035 | 44.71278 | 37004 ft | 477 kts | 60° |
| 2026-05-03 20:31 | 9.91352 | 44.77057 | 36992 ft | 477 kts | 60° |
| 2026-05-03 20:31 | 9.94683 | 44.82866 | 36991 ft | 477 kts | 60° |
| 2026-05-03 20:32 | 9.98022 | 44.88688 | 36973 ft | 477 kts | 60° |
| 2026-05-03 20:32 | 10.01354 | 44.94503 | 36973 ft | 477 kts | 60° |
| 2026-05-03 20:33 | 10.04669 | 45.00291 | 36981 ft | 477 kts | 60° |
| 2026-05-03 20:33 | 10.08002 | 45.06115 | 36957 ft | 477 kts | 60° |
| 2026-05-03 20:34 | 10.11336 | 45.11942 | 36954 ft | 478 kts | 60° |
| 2026-05-03 20:34 | 10.14675 | 45.17781 | 36954 ft | 478 kts | 60° |
| 2026-05-03 20:35 | 10.17990 | 45.23580 | 36953 ft | 478 kts | 60° |
| 2026-05-03 20:35 | 10.21324 | 45.29416 | 36923 ft | 479 kts | 60° |
| 2026-05-03 20:36 | 10.24665 | 45.35268 | 36925 ft | 479 kts | 60° |
| 2026-05-03 20:36 | 10.28013 | 45.41133 | 36923 ft | 480 kts | 61° |
| 2026-05-03 20:37 | 10.31356 | 45.46995 | 36924 ft | 480 kts | 61° |
| 2026-05-03 20:37 | 10.34680 | 45.52826 | 36925 ft | 481 kts | 61° |
| 2026-05-03 20:38 | 10.38027 | 45.58701 | 36909 ft | 481 kts | 61° |
| 2026-05-03 20:38 | 10.41377 | 45.64584 | 36918 ft | 481 kts | 61° |
| 2026-05-03 20:39 | 10.44728 | 45.70471 | 36917 ft | 481 kts | 61° |
| 2026-05-03 20:39 | 10.48077 | 45.76358 | 36919 ft | 481 kts | 61° |
| 2026-05-03 20:40 | 10.51397 | 45.82198 | 36914 ft | 481 kts | 61° |
| 2026-05-03 20:40 | 10.54745 | 45.88091 | 36914 ft | 481 kts | 61° |
| 2026-05-03 20:41 | 10.58086 | 45.93973 | 36918 ft | 481 kts | 61° |
| 2026-05-03 20:41 | 10.61429 | 45.99862 | 36914 ft | 481 kts | 61° |
| 2026-05-03 20:42 | 10.64748 | 46.05714 | 36919 ft | 481 kts | 61° |
| 2026-05-03 20:42 | 10.68093 | 46.11613 | 36901 ft | 482 kts | 61° |
| 2026-05-03 20:43 | 10.71432 | 46.17506 | 36901 ft | 482 kts | 61° |
| 2026-05-03 20:43 | 10.74779 | 46.23417 | 36899 ft | 482 kts | 61° |
| 2026-05-03 20:44 | 10.78123 | 46.29325 | 36896 ft | 482 kts | 61° |
| 2026-05-03 20:44 | 10.81441 | 46.35175 | 36893 ft | 481 kts | 60° |
| 2026-05-03 20:45 | 10.84834 | 46.41054 | 36892 ft | 481 kts | 60° |
| 2026-05-03 20:45 | 10.88224 | 46.46907 | 36885 ft | 480 kts | 60° |
| 2026-05-03 20:46 | 10.91608 | 46.52769 | 36888 ft | 480 kts | 60° |
| 2026-05-03 20:46 | 10.94955 | 46.58578 | 36892 ft | 479 kts | 60° |
| 2026-05-03 20:47 | 10.98321 | 46.64425 | 36879 ft | 479 kts | 60° |
| 2026-05-03 20:47 | 11.01682 | 46.70266 | 36887 ft | 479 kts | 61° |
| 2026-05-03 20:48 | 11.05047 | 46.76117 | 36890 ft | 479 kts | 61° |
| 2026-05-03 20:48 | 11.08392 | 46.81938 | 36888 ft | 479 kts | 61° |
| 2026-05-03 20:49 | 11.11755 | 46.87792 | 36889 ft | 480 kts | 61° |
| 2026-05-03 20:49 | 11.15126 | 46.93662 | 36888 ft | 480 kts | 61° |
| 2026-05-03 20:50 | 11.18498 | 46.99540 | 36890 ft | 480 kts | 61° |
| 2026-05-03 20:50 | 11.21864 | 47.05409 | 36894 ft | 481 kts | 61° |
| 2026-05-03 20:51 | 11.25210 | 47.11248 | 36894 ft | 481 kts | 61° |
| 2026-05-03 20:51 | 11.28584 | 47.17137 | 36885 ft | 481 kts | 61° |
| 2026-05-03 20:52 | 11.31952 | 47.23021 | 36884 ft | 481 kts | 61° |
| 2026-05-03 20:52 | 11.35319 | 47.28908 | 36886 ft | 481 kts | 61° |
| 2026-05-03 20:53 | 11.38666 | 47.34756 | 36885 ft | 481 kts | 61° |
| 2026-05-03 20:53 | 11.42038 | 47.40642 | 36884 ft | 481 kts | 61° |
| 2026-05-03 20:54 | 11.45410 | 47.46533 | 36887 ft | 481 kts | 61° |
| 2026-05-03 20:54 | 11.50468 | 47.55379 | 36885 ft | 481 kts | 61° |
| 2026-05-03 20:55 | 11.53833 | 47.61269 | 36885 ft | 481 kts | 61° |
| 2026-05-03 20:55 | 11.57183 | 47.67137 | 36885 ft | 481 kts | 61° |
| 2026-05-03 20:56 | 11.60551 | 47.73038 | 36885 ft | 481 kts | 61° |
| 2026-05-03 20:56 | 11.63915 | 47.78938 | 36885 ft | 481 kts | 61° |
| 2026-05-03 20:57 | 11.67281 | 47.84844 | 36881 ft | 481 kts | 61° |
| 2026-05-03 20:57 | 11.70619 | 47.90704 | 36883 ft | 481 kts | 61° |
| 2026-05-03 20:58 | 11.73985 | 47.96616 | 36882 ft | 482 kts | 61° |
| 2026-05-03 20:58 | 11.77343 | 48.02519 | 36886 ft | 481 kts | 61° |
| 2026-05-03 20:59 | 11.80707 | 48.08436 | 36881 ft | 482 kts | 61° |
| 2026-05-03 20:59 | 11.84072 | 48.14357 | 36883 ft | 482 kts | 61° |
| 2026-05-03 21:00 | 11.86296 | 48.18275 | 36884 ft | 482 kts | 61° |
| 2026-05-03 21:00 | 11.90768 | 48.26152 | 36885 ft | 482 kts | 61° |
| 2026-05-03 21:01 | 11.94122 | 48.32068 | 36885 ft | 482 kts | 61° |
| 2026-05-03 21:01 | 11.97483 | 48.37997 | 36885 ft | 482 kts | 61° |
| 2026-05-03 21:02 | 12.00816 | 48.43882 | 36885 ft | 482 kts | 61° |
| 2026-05-03 21:02 | 12.04171 | 48.49808 | 36885 ft | 482 kts | 60° |
| 2026-05-03 21:03 | 12.07553 | 48.55708 | 36884 ft | 481 kts | 60° |
| 2026-05-03 21:03 | 12.10987 | 48.61582 | 36882 ft | 481 kts | 60° |
| 2026-05-03 21:04 | 12.14392 | 48.67409 | 36885 ft | 481 kts | 60° |
| 2026-05-03 21:04 | 12.17812 | 48.73283 | 36883 ft | 480 kts | 60° |
| 2026-05-03 21:05 | 12.21220 | 48.79149 | 36885 ft | 480 kts | 60° |
| 2026-05-03 21:05 | 12.24623 | 48.85012 | 36882 ft | 480 kts | 60° |
| 2026-05-03 21:06 | 12.28004 | 48.90840 | 36882 ft | 479 kts | 60° |
| 2026-05-03 21:06 | 12.31403 | 48.96703 | 36882 ft | 479 kts | 60° |
| 2026-05-03 21:07 | 12.34800 | 49.02565 | 36882 ft | 480 kts | 60° |
| 2026-05-03 21:07 | 12.38203 | 49.08441 | 36887 ft | 480 kts | 60° |
| 2026-05-03 21:08 | 12.41600 | 49.14311 | 36885 ft | 480 kts | 60° |
| 2026-05-03 21:08 | 12.44979 | 49.20153 | 36886 ft | 480 kts | 60° |
| 2026-05-03 21:09 | 12.48382 | 49.26040 | 36885 ft | 481 kts | 60° |
| 2026-05-03 21:09 | 12.51786 | 49.31934 | 36884 ft | 481 kts | 60° |
| 2026-05-03 21:10 | 12.55171 | 49.37796 | 36886 ft | 481 kts | 60° |
| 2026-05-03 21:10 | 12.58579 | 49.43705 | 36884 ft | 482 kts | 60° |
| 2026-05-03 21:11 | 12.61984 | 49.49611 | 36885 ft | 482 kts | 60° |
| 2026-05-03 21:11 | 12.65398 | 49.55536 | 36877 ft | 483 kts | 60° |
| 2026-05-03 21:12 | 12.68783 | 49.61414 | 36884 ft | 483 kts | 60° |
| 2026-05-03 21:12 | 12.72190 | 49.67336 | 36882 ft | 483 kts | 60° |
| 2026-05-03 21:13 | 12.75603 | 49.73271 | 36882 ft | 483 kts | 60° |
| 2026-05-03 21:13 | 12.79011 | 49.79202 | 36881 ft | 483 kts | 60° |
| 2026-05-03 21:14 | 12.82419 | 49.85136 | 36883 ft | 483 kts | 60° |
| 2026-05-03 21:14 | 12.85801 | 49.91030 | 36882 ft | 483 kts | 60° |
| 2026-05-03 21:15 | 12.89207 | 49.96968 | 36884 ft | 483 kts | 60° |
| 2026-05-03 21:15 | 12.92610 | 50.02907 | 36885 ft | 483 kts | 60° |
| 2026-05-03 21:16 | 12.96011 | 50.08844 | 36885 ft | 483 kts | 59° |
| 2026-05-03 21:16 | 12.99383 | 50.14736 | 36884 ft | 483 kts | 59° |
| 2026-05-03 21:17 | 13.02232 | 50.19716 | 36878 ft | 483 kts | 59° |
| 2026-05-03 21:17 | 13.06177 | 50.26618 | 36883 ft | 483 kts | 59° |
| 2026-05-03 21:18 | 13.09571 | 50.32560 | 36882 ft | 483 kts | 59° |
| 2026-05-03 21:18 | 13.12937 | 50.38458 | 36882 ft | 483 kts | 59° |
| 2026-05-03 21:19 | 13.16329 | 50.44405 | 36882 ft | 483 kts | 59° |
| 2026-05-03 21:19 | 13.19678 | 50.50281 | 36882 ft | 483 kts | 59° |
| 2026-05-03 21:20 | 13.23066 | 50.56240 | 36883 ft | 483 kts | 59° |
| 2026-05-03 21:20 | 13.26413 | 50.62150 | 36882 ft | 483 kts | 59° |
| 2026-05-03 21:21 | 13.29793 | 50.68121 | 36883 ft | 483 kts | 59° |
| 2026-05-03 21:21 | 13.33165 | 50.74081 | 36882 ft | 483 kts | 59° |
| 2026-05-03 21:22 | 13.36533 | 50.80038 | 36880 ft | 483 kts | 59° |
| 2026-05-03 21:22 | 13.39336 | 50.84999 | 36877 ft | 483 kts | 59° |
| 2026-05-03 21:23 | 13.43135 | 50.91725 | 36885 ft | 483 kts | 59° |
| 2026-05-03 21:23 | 13.45918 | 50.96656 | 36881 ft | 483 kts | 59° |
| 2026-05-03 21:24 | 13.49289 | 51.02633 | 36883 ft | 483 kts | 59° |
| 2026-05-03 21:24 | 13.52651 | 51.08599 | 36882 ft | 483 kts | 59° |
| 2026-05-03 21:25 | 13.56017 | 51.14577 | 36883 ft | 483 kts | 59° |
| 2026-05-03 21:25 | 13.59382 | 51.20556 | 36882 ft | 483 kts | 59° |
| 2026-05-03 21:26 | 13.62741 | 51.26529 | 36882 ft | 483 kts | 59° |
| 2026-05-03 21:26 | 13.66101 | 51.32508 | 36883 ft | 483 kts | 59° |
| 2026-05-03 21:27 | 13.69460 | 51.38492 | 36884 ft | 483 kts | 59° |
| 2026-05-03 21:27 | 13.72815 | 51.44471 | 36879 ft | 482 kts | 59° |
| 2026-05-03 21:28 | 13.76178 | 51.50426 | 36879 ft | 482 kts | 59° |
| 2026-05-03 21:28 | 13.79614 | 51.56359 | 36877 ft | 482 kts | 58° |
| 2026-05-03 21:29 | 13.83025 | 51.62235 | 36882 ft | 482 kts | 58° |
| 2026-05-03 21:29 | 13.86468 | 51.68188 | 36880 ft | 482 kts | 58° |
| 2026-05-03 21:30 | 13.89868 | 51.74084 | 36883 ft | 482 kts | 59° |
| 2026-05-03 21:30 | 13.93284 | 51.80016 | 36883 ft | 482 kts | 59° |
| 2026-05-03 21:31 | 13.96694 | 51.85939 | 36882 ft | 481 kts | 59° |
| 2026-05-03 21:31 | 14.00107 | 51.91872 | 36876 ft | 481 kts | 59° |
| 2026-05-03 21:32 | 14.03521 | 51.97810 | 36877 ft | 481 kts | 59° |
| 2026-05-03 21:32 | 14.06929 | 52.03742 | 36877 ft | 481 kts | 59° |
| 2026-05-03 21:33 | 14.10337 | 52.09680 | 36881 ft | 481 kts | 59° |
| 2026-05-03 21:33 | 14.13736 | 52.15605 | 36878 ft | 481 kts | 59° |
| 2026-05-03 21:34 | 14.17135 | 52.21536 | 36875 ft | 480 kts | 59° |
| 2026-05-03 21:34 | 14.20529 | 52.27460 | 36870 ft | 480 kts | 59° |
| 2026-05-03 21:35 | 14.23927 | 52.33397 | 36875 ft | 480 kts | 59° |
| 2026-05-03 21:35 | 14.27316 | 52.39322 | 36874 ft | 480 kts | 59° |
| 2026-05-03 21:36 | 14.30707 | 52.45255 | 36874 ft | 480 kts | 59° |
| 2026-05-03 21:36 | 14.34097 | 52.51190 | 36874 ft | 480 kts | 59° |
| 2026-05-03 21:37 | 14.37486 | 52.57129 | 36874 ft | 481 kts | 59° |
| 2026-05-03 21:37 | 14.40875 | 52.63073 | 36874 ft | 481 kts | 59° |
| 2026-05-03 21:38 | 14.44265 | 52.69021 | 36871 ft | 481 kts | 59° |
| 2026-05-03 21:38 | 14.47647 | 52.74962 | 36871 ft | 481 kts | 59° |
| 2026-05-03 21:39 | 14.51031 | 52.80908 | 36870 ft | 481 kts | 59° |
| 2026-05-03 21:39 | 14.54414 | 52.86860 | 36871 ft | 481 kts | 59° |
| 2026-05-03 21:40 | 14.57797 | 52.92815 | 36870 ft | 481 kts | 59° |
| 2026-05-03 21:40 | 14.61154 | 52.98730 | 36868 ft | 480 kts | 59° |
| 2026-05-03 21:41 | 14.64684 | 53.04636 | 36856 ft | 480 kts | 51° |
| 2026-05-03 21:41 | 14.69400 | 53.09386 | 36868 ft | 478 kts | 36° |
| 2026-05-03 21:42 | 14.75045 | 53.13003 | 36868 ft | 478 kts | 30° |
| 2026-05-03 21:42 | 14.80737 | 53.16559 | 36864 ft | 478 kts | 31° |
| 2026-05-03 21:43 | 14.86405 | 53.20156 | 36865 ft | 478 kts | 31° |
| 2026-05-03 21:43 | 14.92066 | 53.23770 | 36866 ft | 479 kts | 31° |
| 2026-05-03 21:44 | 14.97736 | 53.27393 | 36867 ft | 479 kts | 31° |
| 2026-05-03 21:44 | 15.03409 | 53.31018 | 36870 ft | 479 kts | 31° |
| 2026-05-03 21:45 | 15.09080 | 53.34643 | 36870 ft | 479 kts | 31° |
| 2026-05-03 21:45 | 15.14749 | 53.38269 | 36870 ft | 479 kts | 31° |
| 2026-05-03 21:46 | 15.20421 | 53.41900 | 36870 ft | 479 kts | 31° |
| 2026-05-03 21:46 | 15.26088 | 53.45530 | 36870 ft | 479 kts | 31° |
| 2026-05-03 21:47 | 15.31758 | 53.49164 | 36869 ft | 479 kts | 31° |
| 2026-05-03 21:47 | 15.37428 | 53.52801 | 36870 ft | 479 kts | 31° |
| 2026-05-03 21:48 | 15.43084 | 53.56431 | 36873 ft | 479 kts | 31° |
| 2026-05-03 21:48 | 15.48675 | 53.60099 | 36869 ft | 479 kts | 32° |
| 2026-05-03 21:49 | 15.54270 | 53.63846 | 36868 ft | 479 kts | 32° |
| 2026-05-03 21:49 | 15.59869 | 53.67590 | 36869 ft | 479 kts | 32° |
| 2026-05-03 21:50 | 15.65467 | 53.71322 | 36867 ft | 479 kts | 32° |
| 2026-05-03 21:50 | 15.71081 | 53.75065 | 36868 ft | 479 kts | 32° |
| 2026-05-03 21:51 | 15.76683 | 53.78804 | 36862 ft | 479 kts | 32° |
| 2026-05-03 21:51 | 15.82289 | 53.82548 | 36862 ft | 479 kts | 32° |
| 2026-05-03 21:52 | 15.87895 | 53.86294 | 36856 ft | 479 kts | 32° |
| 2026-05-03 21:52 | 15.93514 | 53.90017 | 36861 ft | 479 kts | 32° |
| 2026-05-03 21:53 | 15.99104 | 53.93697 | 36862 ft | 479 kts | 32° |
| 2026-05-03 21:53 | 16.04734 | 53.97410 | 36860 ft | 479 kts | 32° |
| 2026-05-03 21:54 | 16.10355 | 54.01125 | 36861 ft | 480 kts | 32° |
| 2026-05-03 21:54 | 16.15996 | 54.04858 | 36858 ft | 480 kts | 32° |
| 2026-05-03 21:55 | 16.21625 | 54.08585 | 36858 ft | 480 kts | 32° |
| 2026-05-03 21:55 | 16.27254 | 54.12315 | 36859 ft | 480 kts | 32° |
| 2026-05-03 21:56 | 16.32891 | 54.16052 | 36859 ft | 480 kts | 32° |
| 2026-05-03 21:56 | 16.38526 | 54.19790 | 36859 ft | 480 kts | 32° |
| 2026-05-03 21:57 | 16.44161 | 54.23532 | 36856 ft | 481 kts | 32° |
| 2026-05-03 21:57 | 16.49803 | 54.27280 | 36858 ft | 481 kts | 32° |
| 2026-05-03 21:58 | 16.55440 | 54.31028 | 36854 ft | 481 kts | 32° |
| 2026-05-03 21:58 | 16.61080 | 54.34781 | 36850 ft | 481 kts | 32° |
| 2026-05-03 21:59 | 16.66717 | 54.38534 | 36855 ft | 481 kts | 32° |
| 2026-05-03 21:59 | 16.72356 | 54.42291 | 36852 ft | 481 kts | 32° |
| 2026-05-03 22:00 | 16.78009 | 54.46061 | 36852 ft | 481 kts | 32° |
| 2026-05-03 22:00 | 16.83647 | 54.49823 | 36860 ft | 482 kts | 32° |
| 2026-05-03 22:01 | 16.89297 | 54.53596 | 36858 ft | 482 kts | 32° |
| 2026-05-03 22:01 | 16.94943 | 54.57363 | 36862 ft | 482 kts | 32° |
| 2026-05-03 22:02 | 17.00599 | 54.61136 | 36874 ft | 482 kts | 32° |
| 2026-05-03 22:02 | 17.06255 | 54.64914 | 36878 ft | 483 kts | 32° |
| 2026-05-03 22:03 | 17.11918 | 54.68700 | 36879 ft | 483 kts | 32° |
| 2026-05-03 22:03 | 17.17579 | 54.72488 | 36878 ft | 484 kts | 32° |
| 2026-05-03 22:04 | 17.23216 | 54.76263 | 36878 ft | 484 kts | 32° |
| 2026-05-03 22:04 | 17.28867 | 54.80079 | 36865 ft | 484 kts | 33° |
| 2026-05-03 22:05 | 17.34350 | 54.84178 | 36874 ft | 484 kts | 36° |
| 2026-05-03 22:05 | 17.39781 | 54.88350 | 36865 ft | 484 kts | 35° |
| 2026-05-03 22:06 | 17.45235 | 54.92484 | 36860 ft | 484 kts | 35° |
| 2026-05-03 22:06 | 17.50694 | 54.96588 | 36853 ft | 483 kts | 35° |
| 2026-05-03 22:07 | 17.56154 | 55.00691 | 36848 ft | 483 kts | 35° |
| 2026-05-03 22:07 | 17.61623 | 55.04807 | 36835 ft | 483 kts | 34° |
| 2026-05-03 22:08 | 17.67080 | 55.08918 | 36836 ft | 483 kts | 34° |
| 2026-05-03 22:08 | 17.72536 | 55.13034 | 36820 ft | 483 kts | 34° |
| 2026-05-03 22:09 | 17.77990 | 55.17150 | 36815 ft | 483 kts | 34° |
| 2026-05-03 22:10 | 17.86160 | 55.23337 | 36813 ft | 483 kts | 34° |
| 2026-05-03 22:10 | 17.90668 | 55.26755 | 36809 ft | 483 kts | 34° |
| 2026-05-03 22:11 | 17.97031 | 55.31584 | 36808 ft | 483 kts | 34° |
| 2026-05-03 22:11 | 18.01553 | 55.35018 | 36806 ft | 483 kts | 34° |
| 2026-05-03 22:12 | 18.06993 | 55.39152 | 36800 ft | 483 kts | 34° |
| 2026-05-03 22:12 | 18.12505 | 55.43176 | 36796 ft | 482 kts | 31° |
| 2026-05-03 22:13 | 18.18168 | 55.46942 | 36800 ft | 482 kts | 31° |
| 2026-05-03 22:13 | 18.23815 | 55.50739 | 36797 ft | 482 kts | 31° |
| 2026-05-03 22:14 | 18.29430 | 55.54577 | 36792 ft | 482 kts | 32° |
| 2026-05-03 22:14 | 18.35051 | 55.58423 | 36793 ft | 482 kts | 32° |
| 2026-05-03 22:15 | 18.40681 | 55.62282 | 36792 ft | 482 kts | 32° |
| 2026-05-03 22:15 | 18.46300 | 55.66141 | 36792 ft | 483 kts | 32° |
| 2026-05-03 22:16 | 18.51928 | 55.70010 | 36789 ft | 483 kts | 32° |
| 2026-05-03 22:16 | 18.57550 | 55.73876 | 36789 ft | 483 kts | 32° |
| 2026-05-03 22:17 | 18.63180 | 55.77751 | 36786 ft | 483 kts | 32° |
| 2026-05-03 22:17 | 18.68803 | 55.81625 | 36787 ft | 483 kts | 32° |
| 2026-05-03 22:18 | 18.74391 | 55.85478 | 36786 ft | 483 kts | 32° |
| 2026-05-03 22:18 | 18.80015 | 55.89358 | 36780 ft | 482 kts | 32° |
| 2026-05-03 22:19 | 18.85631 | 55.93237 | 36783 ft | 482 kts | 32° |
| 2026-05-03 22:19 | 18.91235 | 55.97111 | 36778 ft | 482 kts | 32° |
| 2026-05-03 22:20 | 18.97045 | 56.00640 | 36770 ft | 480 kts | 22° |
| 2026-05-03 22:20 | 19.03344 | 56.02907 | 36779 ft | 478 kts | 12° |
| 2026-05-03 22:21 | 19.09806 | 56.04573 | 36781 ft | 479 kts | 12° |
| 2026-05-03 22:21 | 19.16277 | 56.06280 | 36775 ft | 479 kts | 13° |
| 2026-05-03 22:22 | 19.22747 | 56.08014 | 36779 ft | 480 kts | 13° |
| 2026-05-03 22:22 | 19.29222 | 56.09759 | 36775 ft | 481 kts | 13° |
| 2026-05-03 22:23 | 19.35705 | 56.11508 | 36773 ft | 481 kts | 13° |
| 2026-05-03 22:23 | 19.42191 | 56.13258 | 36772 ft | 481 kts | 13° |
| 2026-05-03 22:24 | 19.48685 | 56.15011 | 36773 ft | 481 kts | 13° |
| 2026-05-03 22:24 | 19.55149 | 56.16757 | 36778 ft | 481 kts | 13° |
| 2026-05-03 22:25 | 19.61630 | 56.18509 | 36773 ft | 480 kts | 13° |
| 2026-05-03 22:25 | 19.68105 | 56.20261 | 36775 ft | 480 kts | 13° |
| 2026-05-03 22:26 | 19.74579 | 56.22015 | 36771 ft | 479 kts | 13° |
| 2026-05-03 22:26 | 19.81036 | 56.23765 | 36772 ft | 479 kts | 13° |
| 2026-05-03 22:27 | 19.87456 | 56.25507 | 36767 ft | 479 kts | 12° |
| 2026-05-03 22:27 | 19.93953 | 56.27264 | 36772 ft | 479 kts | 11° |
| 2026-05-03 22:28 | 20.00530 | 56.28210 | 36771 ft | 476 kts | 359° |
| 2026-05-03 22:28 | 20.07159 | 56.28155 | 36776 ft | 476 kts | 358° |
| 2026-05-03 22:29 | 20.13746 | 56.28129 | 36771 ft | 477 kts | 358° |
| 2026-05-03 22:29 | 20.20389 | 56.28136 | 36769 ft | 478 kts | 358° |
| 2026-05-03 22:30 | 20.27040 | 56.28150 | 36764 ft | 478 kts | 358° |
| 2026-05-03 22:30 | 20.33698 | 56.28163 | 36769 ft | 478 kts | 358° |
| 2026-05-03 22:31 | 20.40353 | 56.28174 | 36773 ft | 479 kts | 358° |
| 2026-05-03 22:31 | 20.47017 | 56.28185 | 36759 ft | 479 kts | 358° |
| 2026-05-03 22:32 | 20.53672 | 56.28196 | 36766 ft | 478 kts | 358° |
| 2026-05-03 22:32 | 20.60277 | 56.27622 | 36765 ft | 475 kts | 349° |
| 2026-05-03 22:33 | 20.66823 | 56.26609 | 36764 ft | 475 kts | 349° |
| 2026-05-03 22:33 | 20.73371 | 56.25635 | 36765 ft | 475 kts | 350° |
| 2026-05-03 22:34 | 20.79869 | 56.24693 | 36765 ft | 475 kts | 350° |
| 2026-05-03 22:34 | 20.86413 | 56.23749 | 36768 ft | 474 kts | 350° |
| 2026-05-03 22:35 | 20.92957 | 56.22803 | 36773 ft | 474 kts | 350° |
| 2026-05-03 22:35 | 20.99495 | 56.21855 | 36773 ft | 474 kts | 349° |
| 2026-05-03 22:36 | 21.06040 | 56.20906 | 36771 ft | 474 kts | 349° |
| 2026-05-03 22:36 | 21.12576 | 56.19956 | 36773 ft | 474 kts | 349° |
| 2026-05-03 22:37 | 21.19117 | 56.19006 | 36774 ft | 474 kts | 349° |
| 2026-05-03 22:37 | 21.25652 | 56.18055 | 36771 ft | 474 kts | 349° |
| 2026-05-03 22:38 | 21.32190 | 56.17102 | 36775 ft | 474 kts | 349° |
| 2026-05-03 22:38 | 21.38727 | 56.16146 | 36788 ft | 474 kts | 349° |
| 2026-05-03 22:39 | 21.45266 | 56.15188 | 36790 ft | 474 kts | 349° |
| 2026-05-03 22:39 | 21.51780 | 56.14234 | 36782 ft | 474 kts | 349° |
| 2026-05-03 22:40 | 21.58313 | 56.13275 | 36784 ft | 474 kts | 349° |
| 2026-05-03 22:40 | 21.64801 | 56.12323 | 36793 ft | 474 kts | 349° |
| 2026-05-03 22:41 | 21.71373 | 56.11357 | 36798 ft | 474 kts | 349° |
| 2026-05-03 22:41 | 21.77907 | 56.10397 | 36797 ft | 474 kts | 349° |
| 2026-05-03 22:42 | 21.84433 | 56.09436 | 36788 ft | 473 kts | 349° |
| 2026-05-03 22:42 | 21.90964 | 56.08473 | 36794 ft | 473 kts | 349° |
| 2026-05-03 22:43 | 21.97444 | 56.07517 | 36795 ft | 473 kts | 349° |
| 2026-05-03 22:43 | 22.03966 | 56.06555 | 36800 ft | 473 kts | 349° |
| 2026-05-03 22:44 | 22.10488 | 56.05586 | 36796 ft | 473 kts | 349° |
| 2026-05-03 22:44 | 22.16997 | 56.04617 | 36803 ft | 472 kts | 349° |
| 2026-05-03 22:45 | 22.23512 | 56.03646 | 36800 ft | 472 kts | 349° |
| 2026-05-03 22:45 | 22.30019 | 56.02677 | 36809 ft | 472 kts | 349° |
| 2026-05-03 22:46 | 22.36524 | 56.01706 | 36809 ft | 471 kts | 349° |
| 2026-05-03 22:46 | 22.43021 | 56.00740 | 36807 ft | 471 kts | 349° |
| 2026-05-03 22:47 | 22.49519 | 55.99778 | 36806 ft | 471 kts | 349° |
| 2026-05-03 22:47 | 22.56006 | 55.98816 | 36810 ft | 471 kts | 348° |
| 2026-05-03 22:48 | 22.62479 | 55.97854 | 36807 ft | 471 kts | 348° |
| 2026-05-03 22:48 | 22.68971 | 55.96888 | 36805 ft | 471 kts | 348° |
| 2026-05-03 22:49 | 22.75424 | 55.95927 | 36807 ft | 471 kts | 348° |
| 2026-05-03 22:49 | 22.81907 | 55.94961 | 36818 ft | 471 kts | 348° |
| 2026-05-03 22:50 | 22.88443 | 55.93988 | 36806 ft | 471 kts | 348° |
| 2026-05-03 22:50 | 22.94888 | 55.93027 | 36812 ft | 470 kts | 348° |
| 2026-05-03 22:51 | 23.01370 | 55.92059 | 36817 ft | 470 kts | 348° |
| 2026-05-03 22:51 | 23.07852 | 55.91088 | 36819 ft | 470 kts | 348° |
| 2026-05-03 22:52 | 23.14327 | 55.90114 | 36818 ft | 470 kts | 348° |
| 2026-05-03 22:52 | 23.20844 | 55.89132 | 36818 ft | 469 kts | 348° |
| 2026-05-03 22:53 | 23.27314 | 55.88156 | 36808 ft | 469 kts | 348° |
| 2026-05-03 22:53 | 23.33737 | 55.87187 | 36814 ft | 469 kts | 348° |
| 2026-05-03 22:54 | 23.40190 | 55.86212 | 36818 ft | 469 kts | 348° |
| 2026-05-03 22:54 | 23.46652 | 55.85234 | 36816 ft | 468 kts | 348° |
| 2026-05-03 22:55 | 23.53114 | 55.84256 | 36818 ft | 468 kts | 348° |
| 2026-05-03 22:55 | 23.59618 | 55.83273 | 35982 ft | 480 kts | 347° |
| 2026-05-03 22:55 | 23.62895 | 55.82783 | 35540 ft | 474 kts | 347° |
| 2026-05-03 22:56 | 23.66163 | 55.82295 | 34969 ft | 471 kts | 347° |
| 2026-05-03 22:56 | 23.69423 | 55.81930 | 34404 ft | 471 kts | 352° |
| 2026-05-03 22:56 | 23.71632 | 55.81869 | 34043 ft | 472 kts | 355° |
| 2026-05-03 22:56 | 23.74866 | 55.82094 | 33470 ft | 473 kts | 0° |
| 2026-05-03 22:57 | 23.78177 | 55.82493 | 32905 ft | 470 kts | 0° |
| 2026-05-03 22:57 | 23.81415 | 55.82860 | 32354 ft | 466 kts | 0° |
| 2026-05-03 22:57 | 23.85664 | 55.83318 | 31664 ft | 461 kts | 360° |
| 2026-05-03 22:57 | 23.87775 | 55.83538 | 31314 ft | 459 kts | 360° |
| 2026-05-03 22:58 | 23.90980 | 55.83870 | 30802 ft | 455 kts | 360° |
| 2026-05-03 22:58 | 23.94081 | 55.84190 | 30269 ft | 452 kts | 360° |
| 2026-05-03 22:58 | 23.97197 | 55.84512 | 29728 ft | 449 kts | 360° |
| 2026-05-03 22:58 | 24.00297 | 55.84832 | 29137 ft | 445 kts | 0° |
| 2026-05-03 22:59 | 24.03363 | 55.85150 | 28591 ft | 440 kts | 0° |
| 2026-05-03 22:59 | 24.06397 | 55.85466 | 28064 ft | 436 kts | 0° |
| 2026-05-03 22:59 | 24.09410 | 55.85779 | 27550 ft | 431 kts | 0° |
| 2026-05-03 22:59 | 24.12380 | 55.86088 | 27051 ft | 427 kts | 0° |
| 2026-05-03 23:00 | 24.15322 | 55.86394 | 26553 ft | 423 kts | 1° |
| 2026-05-03 23:00 | 24.18242 | 55.86697 | 26061 ft | 420 kts | 1° |
| 2026-05-03 23:00 | 24.21137 | 55.86998 | 25579 ft | 416 kts | 1° |
| 2026-05-03 23:00 | 24.24010 | 55.87297 | 25092 ft | 413 kts | 1° |
| 2026-05-03 23:01 | 24.26859 | 55.87594 | 24741 ft | 407 kts | 1° |
| 2026-05-03 23:01 | 24.29647 | 55.87893 | 24464 ft | 400 kts | 2° |
| 2026-05-03 23:01 | 24.32374 | 55.88346 | 24237 ft | 393 kts | 6° |
| 2026-05-03 23:01 | 24.35016 | 55.88938 | 23935 ft | 387 kts | 12° |
| 2026-05-03 23:02 | 24.37496 | 55.90032 | 23527 ft | 391 kts | 24° |
| 2026-05-03 23:02 | 24.39802 | 55.91631 | 23086 ft | 393 kts | 33° |
| 2026-05-03 23:02 | 24.41848 | 55.93634 | 22625 ft | 394 kts | 39° |
| 2026-05-03 23:02 | 24.43804 | 55.95660 | 22212 ft | 390 kts | 39° |
| 2026-05-03 23:03 | 24.45786 | 55.97667 | 21801 ft | 387 kts | 38° |
| 2026-05-03 23:03 | 24.47760 | 55.99650 | 21387 ft | 384 kts | 38° |
| 2026-05-03 23:03 | 24.49721 | 56.01614 | 20965 ft | 381 kts | 38° |
| 2026-05-03 23:03 | 24.51671 | 56.03566 | 20554 ft | 378 kts | 38° |
| 2026-05-03 23:04 | 24.53613 | 56.05510 | 20146 ft | 375 kts | 38° |
| 2026-05-03 23:04 | 24.55511 | 56.07412 | 19633 ft | 362 kts | 38° |
| 2026-05-03 23:04 | 24.57357 | 56.09259 | 18715 ft | 357 kts | 38° |
| 2026-05-03 23:04 | 24.59244 | 56.11001 | 17673 ft | 351 kts | 30° |
| 2026-05-03 23:05 | 24.61387 | 56.12217 | 16557 ft | 344 kts | 17° |
| 2026-05-03 23:05 | 24.63637 | 56.12879 | 15574 ft | 336 kts | 7° |
| 2026-05-03 23:05 | 24.65915 | 56.13241 | 15133 ft | 315 kts | 6° |
| 2026-05-03 23:05 | 24.68021 | 56.13613 | 14755 ft | 298 kts | 6° |
| 2026-05-03 23:06 | 24.70025 | 56.13983 | 14401 ft | 288 kts | 6° |
| 2026-05-03 23:06 | 24.72015 | 56.14347 | 14161 ft | 295 kts | 6° |
| 2026-05-03 23:06 | 24.74074 | 56.14721 | 13880 ft | 314 kts | 6° |
| 2026-05-03 23:06 | 24.76330 | 56.15101 | 13424 ft | 327 kts | 2° |
| 2026-05-03 23:07 | 24.78543 | 56.14835 | 13013 ft | 320 kts | 337° |
| 2026-05-03 23:07 | 24.80417 | 56.13565 | 12622 ft | 316 kts | 318° |
| 2026-05-03 23:07 | 24.81870 | 56.11771 | 12204 ft | 314 kts | 305° |
| 2026-05-03 23:08 | 24.84540 | 56.07307 | 11302 ft | 311 kts | 303° |
| 2026-05-03 23:08 | 24.85536 | 56.05625 | 10962 ft | 310 kts | 303° |
| 2026-05-03 23:08 | 24.86711 | 56.03641 | 10578 ft | 309 kts | 303° |
| 2026-05-03 23:08 | 24.87874 | 56.01685 | 10378 ft | 301 kts | 303° |
| 2026-05-03 23:09 | 24.89008 | 55.99785 | 10239 ft | 292 kts | 303° |
| 2026-05-03 23:09 | 24.90125 | 55.97919 | 10110 ft | 283 kts | 303° |
| 2026-05-03 23:09 | 24.91190 | 55.96141 | 9950 ft | 276 kts | 303° |
| 2026-05-03 23:09 | 24.92122 | 55.94588 | 9656 ft | 275 kts | 303° |
| 2026-05-03 23:10 | 24.93064 | 55.93019 | 9360 ft | 274 kts | 303° |
| 2026-05-03 23:10 | 24.94096 | 55.91298 | 9026 ft | 272 kts | 303° |
| 2026-05-03 23:10 | 24.94713 | 55.90269 | 8841 ft | 272 kts | 303° |
| 2026-05-03 23:10 | 24.95353 | 55.89203 | 8632 ft | 271 kts | 303° |
| 2026-05-03 23:11 | 24.96293 | 55.87636 | 8353 ft | 270 kts | 303° |
| 2026-05-03 23:11 | 24.97302 | 55.85954 | 8003 ft | 254 kts | 302° |
| 2026-05-03 23:11 | 24.98238 | 55.84395 | 7705 ft | 236 kts | 302° |
| 2026-05-03 23:11 | 24.99177 | 55.82828 | 7416 ft | 229 kts | 302° |
| 2026-05-03 23:12 | 25.00033 | 55.81397 | 7253 ft | 252 kts | 302° |
| 2026-05-03 23:12 | 25.01016 | 55.79754 | 7075 ft | 260 kts | 302° |
| 2026-05-03 23:12 | 25.02021 | 55.78081 | 6678 ft | 262 kts | 302° |
| 2026-05-03 23:12 | 25.03027 | 55.76444 | 6359 ft | 259 kts | 302° |
| 2026-05-03 23:13 | 25.04020 | 55.74766 | 5914 ft | 261 kts | 301° |
| 2026-05-03 23:13 | 25.04981 | 55.73074 | 5484 ft | 261 kts | 301° |
| 2026-05-03 23:13 | 25.05922 | 55.71391 | 5039 ft | 250 kts | 301° |
| 2026-05-03 23:13 | 25.06808 | 55.69796 | 4612 ft | 237 kts | 301° |
| 2026-05-03 23:14 | 25.07643 | 55.68291 | 4204 ft | 222 kts | 301° |
| 2026-05-03 23:14 | 25.08427 | 55.66879 | 3757 ft | 210 kts | 300° |
| 2026-05-03 23:14 | 25.09177 | 55.65526 | 3226 ft | 205 kts | 300° |
| 2026-05-03 23:14 | 25.09916 | 55.64190 | 2627 ft | 203 kts | 300° |
| 2026-05-03 23:15 | 25.10630 | 55.62902 | 2298 ft | 188 kts | 301° |
| 2026-05-03 23:15 | 25.11286 | 55.61720 | 2096 ft | 178 kts | 300° |
| 2026-05-03 23:15 | 25.11950 | 55.60521 | 2102 ft | 183 kts | 300° |
| 2026-05-03 23:15 | 25.12599 | 55.59352 | 2046 ft | 170 kts | 300° |
| 2026-05-03 23:16 | 25.13177 | 55.58310 | 2025 ft | 149 kts | 300° |
| 2026-05-03 23:16 | 25.13683 | 55.57397 | 2019 ft | 137 kts | 300° |
| 2026-05-03 23:16 | 25.14184 | 55.56492 | 2052 ft | 137 kts | 300° |
| 2026-05-03 23:16 | 25.14673 | 55.55607 | 2047 ft | 137 kts | 300° |
| 2026-05-03 23:17 | 25.15175 | 55.54702 | 2063 ft | 139 kts | 300° |
| 2026-05-03 23:17 | 25.15676 | 55.53799 | 2047 ft | 133 kts | 300° |
| 2026-05-03 23:17 | 25.16145 | 55.52953 | 2045 ft | 131 kts | 300° |
| 2026-05-03 23:17 | 25.16623 | 55.52089 | 2050 ft | 132 kts | 300° |
| 2026-05-03 23:18 | 25.17099 | 55.51229 | 2039 ft | 130 kts | 300° |
| 2026-05-03 23:18 | 25.17567 | 55.50383 | 2044 ft | 131 kts | 300° |
| 2026-05-03 23:18 | 25.18046 | 55.49517 | 2005 ft | 135 kts | 300° |
| 2026-05-03 23:18 | 25.18533 | 55.48640 | 1839 ft | 134 kts | 300° |
| 2026-05-03 23:19 | 25.19012 | 55.47773 | 1642 ft | 130 kts | 300° |
| 2026-05-03 23:19 | 25.19480 | 55.46929 | 1498 ft | 129 kts | 301° |
| 2026-05-03 23:19 | 25.19948 | 55.46083 | 1333 ft | 131 kts | 301° |
| 2026-05-03 23:19 | 25.20426 | 55.45223 | 1173 ft | 133 kts | 301° |
| 2026-05-03 23:20 | 25.20907 | 55.44349 | 1001 ft | 134 kts | 300° |
| 2026-05-03 23:20 | 25.21399 | 55.43462 | 839 ft | 137 kts | 301° |
| 2026-05-03 23:20 | 25.21898 | 55.42558 | 667 ft | 139 kts | 300° |
| 2026-05-03 23:20 | 25.22407 | 55.41640 | 509 ft | 142 kts | 300° |
| 2026-05-03 23:21 | 25.22924 | 55.40707 | 346 ft | 142 kts | 299° |
| 2026-05-03 23:21 | 25.23430 | 55.39768 | 104 ft | 141 kts | 300° |
| 2026-05-03 23:21 | 25.23932 | 55.38870 | 30 ft | 126 kts | 299° |
| 2026-05-03 23:21 | 25.24289 | 55.38215 | 32 ft | 74 kts | 300° |
| 2026-05-03 23:22 | 25.24609 | 55.37499 | 27 ft | 23 kts | 274° |
| 2026-05-03 23:22 | 25.24610 | 55.37484 | 27 ft | 1 kts | 274° |
| 2026-05-03 23:22 | 25.24610 | 55.37478 | 27 ft | 0 kts | 274° |
| 2026-05-03 23:23 | 25.24611 | 55.37472 | 27 ft | 1 kts | 274° |
| 2026-05-03 23:23 | 25.24612 | 55.37457 | 27 ft | 2 kts | 274° |
| 2026-05-03 23:23 | 25.24613 | 55.37434 | 27 ft | 3 kts | 274° |
| 2026-05-03 23:23 | 25.24615 | 55.37406 | 27 ft | 4 kts | 274° |
| 2026-05-03 23:24 | 25.24616 | 55.37378 | 27 ft | 4 kts | 274° |
| 2026-05-03 23:24 | 25.24618 | 55.37349 | 26 ft | 4 kts | 273° |
| 2026-05-03 23:24 | 25.24620 | 55.37319 | 26 ft | 4 kts | 276° |
| 2026-05-03 23:24 | 25.24625 | 55.37287 | 26 ft | 4 kts | 281° |
| 2026-05-03 23:25 | 25.24635 | 55.37253 | 26 ft | 5 kts | 292° |
| 2026-05-03 23:25 | 25.24661 | 55.37196 | 27 ft | 11 kts | 303° |
| 2026-05-03 23:25 | 25.24714 | 55.37106 | 27 ft | 17 kts | 301° |
| 2026-05-03 23:25 | 25.24777 | 55.36989 | 27 ft | 21 kts | 300° |
| 2026-05-03 23:26 | 25.24846 | 55.36848 | 27 ft | 20 kts | 290° |
| 2026-05-03 23:26 | 25.24877 | 55.36716 | 26 ft | 15 kts | 288° |
| 2026-05-03 23:26 | 25.24916 | 55.36619 | 31 ft | 14 kts | 297° |
| 2026-05-03 23:26 | 25.24970 | 55.36528 | 26 ft | 14 kts | 303° |
| 2026-05-03 23:27 | 25.25023 | 55.36439 | 26 ft | 14 kts | 303° |
| 2026-05-03 23:27 | 25.25077 | 55.36349 | 30 ft | 14 kts | 303° |
| 2026-05-03 23:27 | 25.25118 | 55.36270 | 26 ft | 6 kts | 279° |
| 2026-05-03 23:27 | 25.25093 | 55.36233 | 31 ft | 6 kts | 211° |
| 2026-05-03 23:28 | 25.25060 | 55.36213 | 32 ft | 5 kts | 212° |
| 2026-05-03 23:28 | 25.25033 | 55.36194 | 31 ft | 5 kts | 212° |
| 2026-05-03 23:28 | 25.25006 | 55.36175 | 30 ft | 5 kts | 212° |
| 2026-05-03 23:28 | 25.24984 | 55.36160 | 29 ft | 3 kts | 212° |
| 2026-05-03 23:29 | 25.24977 | 55.36156 | 28 ft | 1 kts | 212° |
| 2026-05-03 23:29 | 25.24972 | 55.36152 | 26 ft | 0 kts | 212° |
| 2026-05-03 23:29 | 25.24971 | 55.36152 | 26 ft | 1 kts | 211° |
| 2026-05-03 23:30 | 25.24968 | 55.36149 | 26 ft | 0 kts | 211° |
| 2026-05-03 23:30 | 25.24966 | 55.36148 | 26 ft | 0 kts | 211° |
| 2026-05-03 23:30 | 25.24965 | 55.36147 | 31 ft | 0 kts | 211° |